Messwerte Sarh

Temperatur

Temperatur
°C
1590879600 0.00 0.00
1590883200 1.00 1.00 28
1590886800 2.00 2.00
1590890400 3.00 3.00
1590894000 4.00 4.00 27
1590897600 5.00 5.00
1590901200 6.00 6.00 26
1590904800 7.00 7.00 27
1590908400 8.00 8.00 29
1590912000 9.00 9.00 30
1590915600 10.00 10.00 31
1590919200 11.00 11.00 32
1590922800 12.00 12.00 33
1590926400 13.00 13.00 34
1590930000 14.00 14.00 35
1590933600 15.00 15.00 35
1590937200 16.00 16.00 35
1590940800 17.00 17.00 35
1590944400 18.00 18.00 34
1590948000 19.00 19.00 32
1590951600 20.00 20.00
1590955200 21.00 21.00
1590958800 22.00 22.00
1590962400 23.00 23.00 29

Aktuellste Messwerte

Wettercharakter
Wetter: meist klar
Temperatur
29 °C
Feuchtigkeit
65 %
Wind
0 km/h, -
Luftdruck
1012 hPa
Messzeit: 31. Mai 2020, 23.00Datenquelle: METAR

Weitere Messstationen in der Nähe

Messstation Temperatur Entfernung
N’Djamena 35 °C 493 km

Wind

Windrichtung Böen Mittelwind
° km/h km/h
1590879600 0.00 23.00 - 0.00
1590883200 1.00 0.00 - 1.00 0
1590886800 2.00 1.00 - 2.00
1590890400 3.00 2.00 - 3.00
1590894000 4.00 3.00 - 4.00 200° 10
1590897600 5.00 4.00 - 5.00
1590901200 6.00 5.00 - 6.00 0
1590904800 7.00 6.00 - 7.00 180° 5
1590908400 8.00 7.00 - 8.00 180° 15
1590912000 9.00 8.00 - 9.00 200° 15
1590915600 10.00 9.00 - 10.00 180° 10
1590919200 11.00 10.00 - 11.00 180° 5
1590922800 12.00 11.00 - 12.00 260° 10
1590926400 13.00 12.00 - 13.00 240° 5
1590930000 14.00 13.00 - 14.00 290° 5
1590933600 15.00 14.00 - 15.00 300° 5
1590937200 16.00 15.00 - 16.00 280° 10
1590940800 17.00 16.00 - 17.00 260° 10
1590944400 18.00 17.00 - 18.00 0
1590948000 19.00 18.00 - 19.00 0
1590951600 20.00 19.00 - 20.00
1590955200 21.00 20.00 - 21.00
1590958800 22.00 21.00 - 22.00
1590962400 23.00 22.00 - 23.00 0

Ihre Wetterstation

Fehlt Ihre Wetterstation auf unserem Portal?

Schreiben Sie an network@meteonews.ch